createdAt,value
2019-05-12T00:00:02.016Z,95609.53
2019-05-12T00:01:10.990Z,95613.33
2019-05-12T00:02:14.511Z,95609.19
2019-05-12T00:03:18.858Z,95609.19
2019-05-12T00:04:22.528Z,95620.06
2019-05-12T00:05:27.981Z,95620.06
2019-05-12T00:06:31.295Z,95616.55
2019-05-12T00:07:35.006Z,95620.13
2019-05-12T00:08:38.520Z,95618.48
2019-05-12T00:09:42.217Z,95617.78
2019-05-12T00:10:47.753Z,95623.20
2019-05-12T00:11:51.116Z,95625.37
2019-05-12T00:12:54.560Z,95619.95
2019-05-12T00:13:58.703Z,95621.83
2019-05-12T00:15:02.245Z,95617.51
2019-05-12T00:16:08.607Z,95626.69
2019-05-12T00:17:11.140Z,95620.11
2019-05-12T00:18:14.779Z,95620.35
2019-05-12T00:19:18.211Z,95622.41
2019-05-12T00:20:21.857Z,95624.45
2019-05-12T00:21:25.354Z,95625.44
2019-05-12T00:22:30.556Z,95628.98
2019-05-12T00:23:35.710Z,95627.73
2019-05-12T00:24:39.389Z,95629.16
2019-05-12T00:25:43.021Z,95631.99
2019-05-12T00:26:47.774Z,95631.84
2019-05-12T00:27:51.477Z,95636.52
2019-05-12T00:28:54.986Z,95633.76
2019-05-12T00:29:58.604Z,95633.98
2019-05-12T00:31:02.040Z,95640.94
2019-05-12T00:32:05.724Z,95639.09
2019-05-12T00:33:09.700Z,95631.92
2019-05-12T00:34:13.544Z,95641.87
2019-05-12T00:35:18.256Z,95639.09
2019-05-12T00:36:21.964Z,95628.91
2019-05-12T00:37:25.402Z,95629.45
2019-05-12T00:38:29.011Z,95629.45
2019-05-12T00:39:32.595Z,95632.77
2019-05-12T00:40:38.832Z,95639.39
2019-05-12T00:41:44.338Z,95634.55
2019-05-12T00:42:48.514Z,95640.38
2019-05-12T00:43:52.038Z,95635.47
2019-05-12T00:44:55.675Z,95637.69
2019-05-12T00:45:59.118Z,95637.69
2019-05-12T00:47:02.756Z,95632.23
2019-05-12T00:48:08.729Z,95629.38
2019-05-12T00:49:11.615Z,95636.64
2019-05-12T00:50:15.207Z,95636.64
2019-05-12T00:51:18.902Z,95635.15
2019-05-12T00:52:22.470Z,95629.39
2019-05-12T00:53:39.014Z,95639.00
2019-05-12T00:54:31.353Z,95640.70
2019-05-12T00:55:35.131Z,95634.53
2019-05-12T00:56:39.207Z,95635.66
2019-05-12T00:57:43.088Z,95632.23
2019-05-12T00:58:48.325Z,95635.60
2019-05-12T00:59:51.927Z,95641.23
2019-05-12T01:00:55.332Z,95636.77
2019-05-12T01:01:58.959Z,95636.98
2019-05-12T01:03:02.463Z,95636.05
2019-05-12T01:04:08.507Z,95637.16
2019-05-12T01:05:11.583Z,95645.62
2019-05-12T01:06:17.710Z,95648.02
2019-05-12T01:07:20.354Z,95642.02
2019-05-12T01:08:23.977Z,95649.72
2019-05-12T01:09:28.280Z,95653.28
2019-05-12T01:10:31.995Z,95653.80
2019-05-12T01:11:37.756Z,95652.65
2019-05-12T01:12:40.943Z,95656.58
2019-05-12T01:13:44.438Z,95654.73
2019-05-12T01:14:48.053Z,95651.58
2019-05-12T01:15:51.747Z,95652.72
2019-05-12T01:16:55.350Z,95655.13
2019-05-12T01:17:58.845Z,95657.69
2019-05-12T01:19:02.463Z,95661.39
2019-05-12T01:20:08.894Z,95655.59
2019-05-12T01:21:12.749Z,95664.36
2019-05-12T01:22:18.558Z,95660.06
2019-05-12T01:23:23.455Z,95665.23
2019-05-12T01:24:28.229Z,95666.64
2019-05-12T01:25:31.967Z,95668.72
2019-05-12T01:26:35.415Z,95676.78
2019-05-12T01:27:39.021Z,95672.96
2019-05-12T01:28:42.438Z,95680.25
2019-05-12T01:29:48.070Z,95681.03
2019-05-12T01:30:51.239Z,95686.67
2019-05-12T01:31:59.270Z,95680.30
2019-05-12T01:33:02.720Z,95682.66
2019-05-12T01:34:08.122Z,95682.66
2019-05-12T01:35:12.077Z,95683.41
2019-05-12T01:36:18.010Z,95687.54
2019-05-12T01:37:23.303Z,95685.89
2019-05-12T01:38:28.753Z,95687.89
2019-05-12T01:39:32.038Z,95690.84
2019-05-12T01:40:35.653Z,95692.92
2019-05-12T01:41:39.151Z,95696.57
2019-05-12T01:42:42.859Z,95692.03
2019-05-12T01:43:48.646Z,95694.89
2019-05-12T01:44:51.765Z,95701.99
2019-05-12T01:45:55.219Z,95700.77
2019-05-12T01:46:58.851Z,95701.02
2019-05-12T01:48:02.291Z,95705.45
2019-05-12T01:49:07.998Z,95710.13
2019-05-12T01:50:11.191Z,95710.48
2019-05-12T01:51:14.829Z,95706.40
2019-05-12T01:52:18.324Z,95709.70
2019-05-12T01:53:21.937Z,95713.42
2019-05-12T01:54:27.702Z,95714.31
2019-05-12T01:55:30.994Z,95714.92
2019-05-12T01:56:34.450Z,95720.99
2019-05-12T01:57:38.799Z,95728.64
2019-05-12T01:58:42.393Z,95729.44
2019-05-12T01:59:48.272Z,95734.52
2019-05-12T02:00:51.235Z,95731.27
2019-05-12T02:01:54.945Z,95729.65
2019-05-12T02:02:58.816Z,95734.25
2019-05-12T02:04:02.602Z,95735.17
2019-05-12T02:05:08.663Z,95732.03
2019-05-12T02:06:12.333Z,95735.11
2019-05-12T02:07:15.792Z,95735.80
2019-05-12T02:08:38.344Z,95733.19
2019-05-12T02:09:41.925Z,95730.83
2019-05-12T02:10:47.980Z,95732.66
2019-05-12T02:11:50.826Z,95729.67
2019-05-12T02:12:54.527Z,95727.73
2019-05-12T02:13:58.069Z,95730.17
2019-05-12T02:15:01.719Z,95729.49
2019-05-12T02:16:05.155Z,95735.11
2019-05-12T02:17:08.920Z,95745.31
2019-05-12T02:18:12.329Z,95745.31
2019-05-12T02:19:17.859Z,95743.06
2019-05-12T02:20:21.710Z,95743.06
2019-05-12T02:21:27.799Z,95748.85
2019-05-12T02:22:30.513Z,95749.86
2019-05-12T02:23:34.126Z,95749.86
2019-05-12T02:24:39.066Z,95749.22
2019-05-12T02:25:42.729Z,95743.00
2019-05-12T02:26:48.497Z,95746.20
2019-05-12T02:27:51.591Z,95745.63
2019-05-12T02:28:55.014Z,95752.17
2019-05-12T02:29:58.666Z,95747.45
2019-05-12T02:31:02.058Z,95755.70
2019-05-12T02:32:05.755Z,95755.37
2019-05-12T02:33:09.202Z,95753.97
2019-05-12T02:34:15.799Z,95753.97
2019-05-12T02:35:18.104Z,95753.88
2019-05-12T02:36:25.341Z,95748.21
2019-05-12T02:37:26.970Z,95751.47
2019-05-12T02:38:30.607Z,95751.47
2019-05-12T02:39:35.282Z,95756.92
2019-05-12T02:40:39.028Z,95764.84
2019-05-12T02:41:44.959Z,95771.58
2019-05-12T02:42:48.027Z,95777.00
2019-05-12T02:43:55.146Z,95778.34
2019-05-12T02:44:57.017Z,95771.94
2019-05-12T02:46:00.451Z,95785.34
2019-05-12T02:47:05.106Z,95776.22
2019-05-12T02:48:08.837Z,95775.98
2019-05-12T02:49:14.646Z,95787.02
2019-05-12T02:50:29.208Z,95794.58
2019-05-12T02:51:35.180Z,95785.53
2019-05-12T02:52:38.326Z,95798.53
2019-05-12T02:53:42.095Z,95797.32
2019-05-12T02:54:55.260Z,95797.32
2019-05-12T02:55:54.335Z,95806.89
2019-05-12T02:56:58.802Z,95801.80
2019-05-12T02:58:05.068Z,95807.44
2019-05-12T02:59:08.647Z,95806.89
2019-05-12T03:00:15.537Z,95806.89
2019-05-12T03:01:18.766Z,95798.99
2019-05-12T03:02:25.321Z,95810.16
2019-05-12T03:03:35.000Z,95805.54
2019-05-12T03:04:40.577Z,95804.38
2019-05-12T03:05:45.911Z,95799.94
2019-05-12T03:06:49.541Z,95813.94
2019-05-12T03:07:55.907Z,95811.73
2019-05-12T03:09:04.774Z,95821.30
2019-05-12T03:10:09.045Z,95818.02
2019-05-12T03:11:14.804Z,95820.98
2019-05-12T03:12:18.311Z,95820.98
2019-05-12T03:13:24.973Z,95821.42
2019-05-12T03:14:27.168Z,95824.19
2019-05-12T03:15:30.856Z,95827.42
2019-05-12T03:16:35.165Z,95834.38
2019-05-12T03:17:38.934Z,95831.57
2019-05-12T03:18:44.941Z,95836.83
2019-05-12T03:19:47.806Z,95832.91
2019-05-12T03:20:54.045Z,95832.91
2019-05-12T03:21:56.584Z,95844.73
2019-05-12T03:23:00.012Z,95852.98
2019-05-12T03:24:06.129Z,95845.39
2019-05-12T03:25:19.940Z,95842.33
2019-05-12T03:26:15.528Z,95847.25
2019-05-12T03:27:19.050Z,95852.80
2019-05-12T03:28:25.446Z,95846.03
2019-05-12T03:29:27.899Z,95851.27
2019-05-12T03:30:37.099Z,95847.08
2019-05-12T03:31:41.373Z,95847.94
2019-05-12T03:32:47.418Z,95850.66
2019-05-12T03:33:52.537Z,95858.41
2019-05-12T03:34:57.617Z,95858.41
2019-05-12T03:36:00.685Z,95861.66
2019-05-12T03:37:07.729Z,95869.50
2019-05-12T03:38:08.527Z,95869.50
2019-05-12T03:39:14.678Z,95867.39
2019-05-12T03:40:17.533Z,95874.55
2019-05-12T03:41:21.170Z,95875.31
2019-05-12T03:42:25.278Z,95877.31
2019-05-12T03:43:29.005Z,95877.31
2019-05-12T03:44:35.256Z,95888.19
2019-05-12T03:45:37.999Z,95888.19
2019-05-12T03:46:41.429Z,95882.19
2019-05-12T03:47:45.709Z,95889.14
2019-05-12T03:48:49.233Z,95889.14
2019-05-12T03:49:54.407Z,95892.16
2019-05-12T03:50:57.965Z,95891.26
2019-05-12T03:52:04.776Z,95896.63
2019-05-12T03:53:10.899Z,95895.28
2019-05-12T03:54:15.226Z,95895.28
2019-05-12T03:55:31.744Z,95907.91
2019-05-12T03:56:25.873Z,95907.91
2019-05-12T03:57:28.088Z,95910.77
2019-05-12T03:58:34.619Z,95910.22
2019-05-12T03:59:36.945Z,95910.22
2019-05-12T04:00:40.727Z,95916.68
2019-05-12T04:01:45.045Z,95922.14
2019-05-12T04:02:48.985Z,95917.13
2019-05-12T04:03:54.179Z,95925.70
2019-05-12T04:04:57.909Z,95926.83
2019-05-12T04:06:04.472Z,95928.33
2019-05-12T04:07:06.699Z,95934.19
2019-05-12T04:08:10.139Z,95936.67
2019-05-12T04:09:15.505Z,95933.86
2019-05-12T04:10:19.108Z,95933.86
2019-05-12T04:11:24.991Z,95943.63
2019-05-12T04:12:28.060Z,95950.66
2019-05-12T04:13:34.184Z,95950.70
2019-05-12T04:14:36.845Z,95952.59
2019-05-12T04:15:40.460Z,95952.59
2019-05-12T04:16:45.157Z,95952.09
2019-05-12T04:17:49.094Z,95941.49
2019-05-12T04:18:55.194Z,95955.39
2019-05-12T04:19:57.927Z,95957.05
2019-05-12T04:21:01.378Z,95962.16
2019-05-12T04:22:05.640Z,95956.94
2019-05-12T04:23:09.199Z,95957.77
2019-05-12T04:24:14.270Z,95957.77
2019-05-12T04:25:17.927Z,95975.23
2019-05-12T04:26:25.055Z,95969.73
2019-05-12T04:27:26.703Z,95972.08
2019-05-12T04:28:30.317Z,95976.00
2019-05-12T04:29:34.888Z,95976.14
2019-05-12T04:30:38.648Z,95982.05
2019-05-12T04:31:44.217Z,95985.02
2019-05-12T04:32:47.446Z,95987.02
2019-05-12T04:33:50.872Z,95997.96
2019-05-12T04:34:55.211Z,95998.23
2019-05-12T04:35:58.782Z,95998.78
2019-05-12T04:37:04.584Z,95997.61
2019-05-12T04:38:07.647Z,95995.81
2019-05-12T04:39:14.341Z,95996.31
2019-05-12T04:40:16.535Z,96004.86
2019-05-12T04:41:20.492Z,96005.20
2019-05-12T04:42:25.114Z,96008.00
2019-05-12T04:43:29.138Z,96010.02
2019-05-12T04:44:34.724Z,96015.37
2019-05-12T04:45:38.170Z,96016.40
2019-05-12T04:46:44.942Z,96022.17
2019-05-12T04:47:47.159Z,96027.14
2019-05-12T04:48:50.590Z,96034.61
2019-05-12T04:49:54.698Z,96040.51
2019-05-12T04:50:58.204Z,96034.66
2019-05-12T04:52:04.968Z,96040.70
2019-05-12T04:53:07.289Z,96047.41
2019-05-12T04:54:14.971Z,96047.02
2019-05-12T04:55:16.227Z,96047.53
2019-05-12T04:56:20.801Z,96049.73
2019-05-12T04:57:25.434Z,96053.08
2019-05-12T04:58:29.509Z,96057.36
2019-05-12T04:59:34.477Z,96062.17
2019-05-12T05:00:38.515Z,96067.05
2019-05-12T05:01:45.102Z,96069.95
2019-05-12T05:02:47.553Z,96064.25
2019-05-12T05:03:50.985Z,96065.45
2019-05-12T05:04:54.860Z,96071.07
2019-05-12T05:05:58.486Z,96070.37
2019-05-12T05:07:04.456Z,96076.23
2019-05-12T05:08:07.672Z,96079.62
2019-05-12T05:09:14.233Z,96073.81
2019-05-12T05:10:17.020Z,96077.61
2019-05-12T05:11:20.885Z,96083.73
2019-05-12T05:12:24.534Z,96090.34
2019-05-12T05:13:28.340Z,96085.17
2019-05-12T05:14:34.002Z,96090.50
2019-05-12T05:15:37.489Z,96095.31
2019-05-12T05:16:41.174Z,96095.70
2019-05-12T05:17:45.138Z,96097.06
2019-05-12T05:18:48.747Z,96096.40
2019-05-12T05:19:53.323Z,96097.70
2019-05-12T05:20:57.111Z,96105.93
2019-05-12T05:22:00.863Z,96109.38
2019-05-12T05:23:04.980Z,96113.17
2019-05-12T05:24:08.783Z,96116.20
2019-05-12T05:25:14.427Z,96117.63
2019-05-12T05:26:24.488Z,96126.50
2019-05-12T05:27:24.726Z,96125.72
2019-05-12T05:28:28.598Z,96122.58
2019-05-12T05:29:33.573Z,96130.78
2019-05-12T05:30:37.801Z,96125.67
2019-05-12T05:31:41.421Z,96127.81
2019-05-12T05:32:45.234Z,96136.30
2019-05-12T05:33:48.877Z,96136.67
2019-05-12T05:34:57.589Z,96149.68
2019-05-12T05:35:58.169Z,96136.78
2019-05-12T05:37:01.982Z,96145.70
2019-05-12T05:38:05.779Z,96149.78
2019-05-12T05:39:09.620Z,96150.39
2019-05-12T05:40:14.272Z,96148.79
2019-05-12T05:41:18.232Z,96148.00
2019-05-12T05:42:26.853Z,96148.42
2019-05-12T05:43:27.356Z,96152.09
2019-05-12T05:44:36.275Z,96163.17
2019-05-12T05:45:36.522Z,96154.48
2019-05-12T05:46:47.691Z,96157.45
2019-05-12T05:47:48.821Z,96164.11
2019-05-12T05:48:51.005Z,96161.84
2019-05-12T05:49:54.795Z,96168.92
2019-05-12T05:50:59.942Z,96174.62
2019-05-12T05:52:04.075Z,96170.34
2019-05-12T05:53:09.186Z,96172.30
2019-05-12T05:54:13.808Z,96177.98
2019-05-12T05:55:20.107Z,96179.02
2019-05-12T05:56:38.382Z,96174.48
2019-05-12T05:57:29.874Z,96181.55
2019-05-12T05:58:34.032Z,96184.94
2019-05-12T05:59:37.711Z,96192.63
2019-05-12T06:00:43.500Z,96191.44
2019-05-12T06:01:51.903Z,96192.83
2019-05-12T06:02:54.523Z,96194.78
2019-05-12T06:03:58.378Z,96195.79
2019-05-12T06:05:04.413Z,96196.94
2019-05-12T06:06:12.349Z,96204.55
2019-05-12T06:07:14.344Z,96197.75
2019-05-12T06:08:20.862Z,96199.48
2019-05-12T06:09:23.690Z,96210.12
2019-05-12T06:10:35.421Z,96207.73
2019-05-12T06:11:34.494Z,96204.47
2019-05-12T06:12:40.322Z,96209.20
2019-05-12T06:13:44.346Z,96214.66
2019-05-12T06:14:54.504Z,96215.27
2019-05-12T06:15:53.803Z,96211.31
2019-05-12T06:16:57.389Z,96214.59
2019-05-12T06:18:03.325Z,96218.77
2019-05-12T06:19:06.593Z,96211.63
2019-05-12T06:20:10.697Z,96216.73
2019-05-12T06:21:14.338Z,96232.52
2019-05-12T06:22:18.527Z,96227.27
2019-05-12T06:23:24.034Z,96227.50
2019-05-12T06:24:27.646Z,96229.57
2019-05-12T06:25:44.641Z,96235.33
2019-05-12T06:26:36.765Z,96236.88
2019-05-12T06:27:40.376Z,96233.86
2019-05-12T06:28:44.228Z,96242.64
2019-05-12T06:29:52.433Z,96242.30
2019-05-12T06:30:54.624Z,96244.59
2019-05-12T06:32:00.042Z,96241.47
2019-05-12T06:33:04.364Z,96249.97
2019-05-12T06:34:15.475Z,96245.00
2019-05-12T06:35:15.079Z,96248.80
2019-05-12T06:36:22.103Z,96253.14
2019-05-12T06:37:24.338Z,96247.61
2019-05-12T06:38:31.077Z,96253.28
2019-05-12T06:39:34.358Z,96249.16
2019-05-12T06:40:41.199Z,96260.47
2019-05-12T06:41:44.415Z,96257.61
2019-05-12T06:42:52.762Z,96253.31
2019-05-12T06:43:54.234Z,96260.62
2019-05-12T06:44:58.315Z,96261.78
2019-05-12T06:46:03.631Z,96264.51
2019-05-12T06:47:08.423Z,96254.94
2019-05-12T06:48:14.034Z,96269.88
2019-05-12T06:49:17.887Z,96260.27
2019-05-12T06:50:23.677Z,96266.33
2019-05-12T06:51:27.110Z,96264.11
2019-05-12T06:52:30.895Z,96271.09
2019-05-12T06:53:34.548Z,96262.38
2019-05-12T06:54:44.566Z,96265.08
2019-05-12T06:55:43.698Z,96269.08
2019-05-12T06:56:50.039Z,96275.39
2019-05-12T06:57:53.983Z,96279.05
2019-05-12T06:59:00.927Z,96273.39
2019-05-12T07:00:04.717Z,96275.55
2019-05-12T07:01:10.973Z,96281.01
2019-05-12T07:02:13.925Z,96284.65
2019-05-12T07:03:19.429Z,96283.68
2019-05-12T07:04:24.087Z,96288.03
2019-05-12T07:05:32.901Z,96291.72
2019-05-12T07:06:33.993Z,96286.47
2019-05-12T07:07:42.083Z,96286.34
2019-05-12T07:08:43.855Z,96289.70
2019-05-12T07:09:54.115Z,96303.26
2019-05-12T07:11:01.736Z,96295.87
2019-05-12T07:12:03.858Z,96299.67
2019-05-12T07:13:05.481Z,96299.36
2019-05-12T07:14:18.832Z,96305.16
2019-05-12T07:15:15.397Z,96313.73
2019-05-12T07:16:23.162Z,96307.63
2019-05-12T07:17:28.681Z,96306.33
2019-05-12T07:18:36.619Z,96315.33
2019-05-12T07:19:37.999Z,96306.20
2019-05-12T07:20:43.527Z,96313.73
2019-05-12T07:21:50.870Z,96312.31
2019-05-12T07:22:54.868Z,96319.16
2019-05-12T07:24:00.542Z,96314.25
2019-05-12T07:25:04.523Z,96318.28
2019-05-12T07:26:14.205Z,96324.63
2019-05-12T07:27:14.677Z,96314.36
2019-05-12T07:28:18.408Z,96324.48
2019-05-12T07:29:23.901Z,96319.16
2019-05-12T07:30:31.897Z,96324.19
2019-05-12T07:31:34.888Z,96325.75
2019-05-12T07:32:38.702Z,96327.92
2019-05-12T07:33:45.704Z,96332.50
2019-05-12T07:34:47.894Z,96332.39
2019-05-12T07:35:53.275Z,96331.70
2019-05-12T07:36:58.712Z,96335.45
2019-05-12T07:38:04.734Z,96341.30
2019-05-12T07:39:09.426Z,96337.38
2019-05-12T07:40:13.731Z,96341.92
2019-05-12T07:41:20.675Z,96345.73
2019-05-12T07:42:31.127Z,96335.84
2019-05-12T07:43:33.769Z,96345.41
2019-05-12T07:44:39.924Z,96344.22
2019-05-12T07:45:46.451Z,96345.84
2019-05-12T07:46:50.235Z,96343.03
2019-05-12T07:47:59.343Z,96344.39
2019-05-12T07:48:59.914Z,96342.67
2019-05-12T07:50:04.475Z,96354.31
2019-05-12T07:51:08.282Z,96354.53
2019-05-12T07:52:13.772Z,96352.72
2019-05-12T07:53:17.496Z,96358.59
2019-05-12T07:54:23.453Z,96354.88
2019-05-12T07:55:26.703Z,96360.64
2019-05-12T07:56:32.721Z,96355.63
2019-05-12T07:57:50.662Z,96362.84
2019-05-12T07:58:49.075Z,96361.73
2019-05-12T07:59:46.821Z,96360.95
2019-05-12T08:00:53.935Z,96368.60
2019-05-12T08:01:56.130Z,96365.22
2019-05-12T08:02:59.872Z,96370.42
2019-05-12T08:04:04.526Z,96363.15
2019-05-12T08:05:10.925Z,96369.91
2019-05-12T08:06:14.342Z,96367.17
2019-05-12T08:07:24.764Z,96374.71
2019-05-12T08:08:23.712Z,96369.80
2019-05-12T08:09:32.486Z,96373.29
2019-05-12T08:10:34.246Z,96370.53
2019-05-12T08:11:38.968Z,96369.57
2019-05-12T08:12:44.422Z,96375.91
2019-05-12T08:13:48.433Z,96370.22
2019-05-12T08:14:54.060Z,96375.02
2019-05-12T08:15:57.611Z,96376.68
2019-05-12T08:17:10.460Z,96375.38
2019-05-12T08:18:08.052Z,96377.54
2019-05-12T08:19:17.216Z,96379.81
2019-05-12T08:20:17.552Z,96380.16
2019-05-12T08:21:21.237Z,96384.08
2019-05-12T08:22:29.336Z,96381.33
2019-05-12T08:23:30.429Z,96380.81
2019-05-12T08:24:36.827Z,96384.73
2019-05-12T08:25:39.616Z,96385.91
2019-05-12T08:26:43.699Z,96379.69
2019-05-12T08:27:50.281Z,96383.52
2019-05-12T08:28:53.560Z,96385.48
2019-05-12T08:30:00.938Z,96391.23
2019-05-12T08:31:03.662Z,96394.72
2019-05-12T08:32:09.923Z,96397.11
2019-05-12T08:33:14.683Z,96394.27
2019-05-12T08:34:18.230Z,96393.50
2019-05-12T08:35:29.440Z,96401.48
2019-05-12T08:36:27.381Z,96405.39
2019-05-12T08:37:33.263Z,96406.94
2019-05-12T08:38:36.635Z,96406.29
2019-05-12T08:39:40.479Z,96406.81
2019-05-12T08:40:50.989Z,96406.81
2019-05-12T08:41:49.761Z,96406.25
2019-05-12T08:42:53.985Z,96407.13
2019-05-12T08:43:58.573Z,96412.48
2019-05-12T08:45:04.117Z,96413.02
2019-05-12T08:46:12.229Z,96419.34
2019-05-12T08:47:15.211Z,96414.55
2019-05-12T08:48:21.667Z,96424.36
2019-05-12T08:49:24.465Z,96422.06
2019-05-12T08:50:31.549Z,96426.30
2019-05-12T08:51:34.005Z,96423.46
2019-05-12T08:52:41.335Z,96427.07
2019-05-12T08:53:43.926Z,96428.05
2019-05-12T08:54:49.455Z,96428.70
2019-05-12T08:55:53.873Z,96434.80
2019-05-12T08:57:01.011Z,96435.67
2019-05-12T08:58:03.880Z,96432.86
2019-05-12T08:59:09.583Z,96443.11
2019-05-12T09:00:14.574Z,96432.95
2019-05-12T09:01:20.327Z,96436.03
2019-05-12T09:02:24.142Z,96437.87
2019-05-12T09:03:30.473Z,96440.05
2019-05-12T09:04:33.887Z,96446.58
2019-05-12T09:05:38.745Z,96444.50
2019-05-12T09:06:43.552Z,96442.97
2019-05-12T09:07:47.551Z,96449.30
2019-05-12T09:08:51.323Z,96452.66
2019-05-12T09:09:55.127Z,96453.32
2019-05-12T09:10:58.919Z,96456.13
2019-05-12T09:12:03.533Z,96459.29
2019-05-12T09:13:07.450Z,96467.66
2019-05-12T09:14:11.249Z,96461.45
2019-05-12T09:15:15.048Z,96467.88
2019-05-12T09:16:18.843Z,96466.16
2019-05-12T09:17:23.261Z,96470.64
2019-05-12T09:18:33.697Z,96472.15
2019-05-12T09:19:33.194Z,96470.97
2019-05-12T09:20:39.409Z,96468.12
2019-05-12T09:21:44.300Z,96479.47
2019-05-12T09:22:52.883Z,96476.19
2019-05-12T09:23:55.985Z,96478.16
2019-05-12T09:25:06.203Z,96479.02
2019-05-12T09:26:04.972Z,96483.80
2019-05-12T09:27:09.060Z,96487.39
2019-05-12T09:28:13.763Z,96489.70
2019-05-12T09:29:17.711Z,96494.92
2019-05-12T09:30:29.766Z,96493.73
2019-05-12T09:31:33.864Z,96490.69
2019-05-12T09:32:39.125Z,96500.03
2019-05-12T09:33:44.563Z,96496.88
2019-05-12T09:34:53.152Z,96495.14
2019-05-12T09:35:54.191Z,96496.46
2019-05-12T09:36:59.716Z,96498.97
2019-05-12T09:38:05.968Z,96502.11
2019-05-12T09:39:08.836Z,96498.19
2019-05-12T09:40:14.733Z,96504.72
2019-05-12T09:41:18.003Z,96509.08
2019-05-12T09:42:25.572Z,96512.25
2019-05-12T09:43:27.771Z,96511.02
2019-05-12T09:44:31.561Z,96504.35
2019-05-12T09:45:40.700Z,96509.17
2019-05-12T09:46:41.608Z,96515.38
2019-05-12T09:47:45.589Z,96514.31
2019-05-12T09:48:52.268Z,96519.31
2019-05-12T09:49:54.888Z,96518.02
2019-05-12T09:51:00.628Z,96516.25
2019-05-12T09:52:04.278Z,96517.36
2019-05-12T09:53:11.506Z,96511.02
2019-05-12T09:54:14.001Z,96524.55
2019-05-12T09:55:17.878Z,96519.33
2019-05-12T09:56:23.811Z,96520.83
2019-05-12T09:57:34.782Z,96525.00
2019-05-12T09:58:33.715Z,96522.16
2019-05-12T09:59:37.644Z,96526.40
2019-05-12T10:00:43.353Z,96524.98
2019-05-12T10:01:46.751Z,96529.77
2019-05-12T10:02:51.052Z,96525.31
2019-05-12T10:03:55.885Z,96530.54
2019-05-12T10:05:00.948Z,96529.22
2019-05-12T10:06:04.980Z,96526.70
2019-05-12T10:07:08.689Z,96532.40
2019-05-12T10:08:13.938Z,96530.86
2019-05-12T10:09:19.721Z,96535.78
2019-05-12T10:10:24.249Z,96532.49
2019-05-12T10:11:28.033Z,96538.59
2019-05-12T10:12:36.582Z,96544.37
2019-05-12T10:13:37.161Z,96539.03
2019-05-12T10:14:45.822Z,96539.36
2019-05-12T10:15:46.307Z,96532.62
2019-05-12T10:16:50.134Z,96537.28
2019-05-12T10:17:54.051Z,96541.08
2019-05-12T10:18:57.755Z,96546.55
2019-05-12T10:20:01.509Z,96547.42
2019-05-12T10:21:05.335Z,96546.75
2019-05-12T10:22:08.952Z,96542.17
2019-05-12T10:23:18.266Z,96546.76
2019-05-12T10:24:18.269Z,96547.19
2019-05-12T10:25:23.198Z,96548.50
2019-05-12T10:26:27.496Z,96543.67
2019-05-12T10:27:32.450Z,96545.22
2019-05-12T10:28:36.597Z,96550.43
2019-05-12T10:29:40.409Z,96549.21
2019-05-12T10:30:47.185Z,96548.13
2019-05-12T10:31:49.718Z,96549.32
2019-05-12T10:32:53.403Z,96554.70
2019-05-12T10:33:58.558Z,96549.55
2019-05-12T10:35:02.249Z,96550.20
2019-05-12T10:36:08.526Z,96551.31
2019-05-12T10:37:13.360Z,96552.83
2019-05-12T10:38:17.010Z,96552.58
2019-05-12T10:39:20.775Z,96550.64
2019-05-12T10:40:24.636Z,96562.62
2019-05-12T10:41:28.276Z,96554.34
2019-05-12T10:42:33.627Z,96557.17
2019-05-12T10:43:37.352Z,96554.77
2019-05-12T10:44:41.225Z,96557.38
2019-05-12T10:45:44.901Z,96559.16
2019-05-12T10:46:50.067Z,96563.10
2019-05-12T10:47:53.696Z,96563.10
2019-05-12T10:48:57.460Z,96565.70
2019-05-12T10:50:01.079Z,96565.02
2019-05-12T10:51:05.028Z,96565.02
2019-05-12T10:52:08.695Z,96569.92
2019-05-12T10:53:15.685Z,96567.96
2019-05-12T10:54:17.767Z,96565.13
2019-05-12T10:55:23.808Z,96567.83
2019-05-12T10:56:27.028Z,96571.33
2019-05-12T10:57:30.847Z,96565.55
2019-05-12T10:58:34.465Z,96570.45
2019-05-12T10:59:43.700Z,96570.59
2019-05-12T11:00:44.348Z,96572.64
2019-05-12T11:01:49.146Z,96579.97
2019-05-12T11:02:53.490Z,96572.44
2019-05-12T11:03:57.414Z,96572.44
2019-05-12T11:05:01.098Z,96572.56
2019-05-12T11:06:07.670Z,96571.25
2019-05-12T11:07:10.469Z,96570.48
2019-05-12T11:08:14.568Z,96572.02
2019-05-12T11:09:21.343Z,96578.77
2019-05-12T11:10:23.722Z,96573.21
2019-05-12T11:11:32.868Z,96573.00
2019-05-12T11:12:33.310Z,96571.81
2019-05-12T11:13:40.210Z,96571.05
2019-05-12T11:14:43.902Z,96576.83
2019-05-12T11:15:49.521Z,96574.86
2019-05-12T11:16:54.341Z,96576.06
2019-05-12T11:17:59.427Z,96580.09
2019-05-12T11:19:06.378Z,96579.02
2019-05-12T11:20:08.801Z,96580.42
2019-05-12T11:21:12.322Z,96587.50
2019-05-12T11:22:16.393Z,96585.97
2019-05-12T11:23:19.860Z,96580.09
2019-05-12T11:24:23.838Z,96582.27
2019-05-12T11:25:27.260Z,96583.16
2019-05-12T11:26:31.336Z,96583.38
2019-05-12T11:27:34.790Z,96587.19
2019-05-12T11:28:38.778Z,96591.54
2019-05-12T11:29:48.605Z,96594.39
2019-05-12T11:30:47.932Z,96599.06
2019-05-12T11:31:53.633Z,96594.47
2019-05-12T11:32:59.733Z,96598.94
2019-05-12T11:34:04.663Z,96598.36
2019-05-12T11:35:08.987Z,96600.33
2019-05-12T11:36:13.595Z,96600.78
2019-05-12T11:37:17.420Z,96604.92
2019-05-12T11:38:20.902Z,96608.61
2019-05-12T11:39:24.900Z,96605.11
2019-05-12T11:40:28.419Z,96609.47
2019-05-12T11:41:33.341Z,96609.48
2019-05-12T11:42:36.833Z,96613.18
2019-05-12T11:43:40.907Z,96609.27
2019-05-12T11:44:44.401Z,96609.27
2019-05-12T11:45:48.332Z,96608.41
2019-05-12T11:46:54.425Z,96606.77
2019-05-12T11:48:05.071Z,96606.77
2019-05-12T11:49:04.427Z,96610.80
2019-05-12T11:50:10.107Z,96616.14
2019-05-12T11:51:14.434Z,96611.88
2019-05-12T11:52:19.445Z,96612.10
2019-05-12T11:53:30.240Z,96611.42
2019-05-12T11:54:29.070Z,96611.02
2019-05-12T11:55:34.723Z,96616.02
2019-05-12T11:56:40.285Z,96613.62
2019-05-12T11:57:43.812Z,96618.76
2019-05-12T11:58:51.454Z,96619.63
2019-05-12T11:59:59.085Z,96622.58
2019-05-12T12:01:06.336Z,96618.09
2019-05-12T12:02:05.294Z,96619.30
2019-05-12T12:03:15.453Z,96627.06
2019-05-12T12:04:14.606Z,96620.17
2019-05-12T12:05:18.657Z,96624.87
2019-05-12T12:06:23.955Z,96624.75
2019-05-12T12:07:27.804Z,96616.02
2019-05-12T12:08:33.684Z,96629.34
2019-05-12T12:09:36.976Z,96624.44
2019-05-12T12:10:40.541Z,96627.16
2019-05-12T12:11:44.558Z,96627.58
2019-05-12T12:12:49.410Z,96629.20
2019-05-12T12:13:53.717Z,96628.23
2019-05-12T12:14:57.149Z,96632.91
2019-05-12T12:16:06.888Z,96630.09
2019-05-12T12:17:06.501Z,96638.72
2019-05-12T12:18:15.346Z,96632.80
2019-05-12T12:19:15.795Z,96640.33
2019-05-12T12:20:22.351Z,96640.33
2019-05-12T12:21:25.154Z,96635.86
2019-05-12T12:22:29.972Z,96638.16
2019-05-12T12:23:33.534Z,96640.13
2019-05-12T12:24:38.378Z,96637.52
2019-05-12T12:25:43.069Z,96644.40
2019-05-12T12:26:47.761Z,96650.38
2019-05-12T12:27:53.575Z,96640.02
2019-05-12T12:28:56.987Z,96646.55
2019-05-12T12:30:13.697Z,96641.78
2019-05-12T12:31:07.851Z,96642.95
2019-05-12T12:32:18.439Z,96646.77
2019-05-12T12:33:17.071Z,96644.27
2019-05-12T12:34:29.917Z,96647.22
2019-05-12T12:35:26.351Z,96646.87
2019-05-12T12:36:29.876Z,96646.98
2019-05-12T12:37:33.854Z,96648.95